createdAt,value
2023-03-21T00:01:03.904Z,89.03
2023-03-21T00:05:16.248Z,88.92
2023-03-21T00:09:28.118Z,89.03
2023-03-21T00:13:42.381Z,89.05
2023-03-21T00:17:58.393Z,90.00
2023-03-21T00:22:09.973Z,89.61
2023-03-21T00:26:22.603Z,89.89
2023-03-21T00:30:34.182Z,90.09
2023-03-21T00:35:00.224Z,90.22
2023-03-21T00:39:18.537Z,90.79
2023-03-21T00:43:31.530Z,91.53
2023-03-21T00:47:43.426Z,91.37
2023-03-21T00:51:57.357Z,91.22
2023-03-21T00:56:11.239Z,91.28
2023-03-21T01:00:23.013Z,90.89
2023-03-21T01:04:34.658Z,91.18
2023-03-21T01:08:52.697Z,91.21
2023-03-21T01:13:04.947Z,91.06
2023-03-21T01:17:16.596Z,91.32
2023-03-21T01:21:28.345Z,91.52
2023-03-21T01:25:40.676Z,91.49
2023-03-21T01:29:52.459Z,91.22
2023-03-21T01:34:04.454Z,91.34
2023-03-21T01:38:16.220Z,91.56
2023-03-21T01:42:29.109Z,91.77
2023-03-21T01:46:57.381Z,91.79
2023-03-21T01:51:43.885Z,91.62
2023-03-21T01:56:20.879Z,91.55
2023-03-21T02:00:39.093Z,91.78
2023-03-21T02:05:05.635Z,91.52
2023-03-21T02:09:22.556Z,91.41
2023-03-21T02:13:35.361Z,91.37
2023-03-21T02:17:56.790Z,91.40
2023-03-21T02:22:49.356Z,91.22
2023-03-21T02:27:18.904Z,91.23
2023-03-21T02:31:41.359Z,90.96
2023-03-21T02:36:19.056Z,91.15
2023-03-21T02:40:39.617Z,91.08
2023-03-21T02:45:11.644Z,91.42
2023-03-21T02:49:35.597Z,91.14
2023-03-21T02:54:10.220Z,91.26
2023-03-21T02:58:30.295Z,91.54
2023-03-21T03:02:43.729Z,91.51
2023-03-21T03:07:11.346Z,91.81
2023-03-21T03:11:28.959Z,91.90
2023-03-21T03:16:00.299Z,91.75
2023-03-21T03:20:36.740Z,92.16
2023-03-21T03:25:04.859Z,91.91
2023-03-21T03:29:29.018Z,92.17
2023-03-21T03:33:46.864Z,92.21
2023-03-21T03:38:02.721Z,92.41
2023-03-21T03:42:28.385Z,92.69
2023-03-21T03:47:17.555Z,93.14
2023-03-21T03:51:42.687Z,93.07
2023-03-21T03:56:08.167Z,92.74
2023-03-21T04:00:20.939Z,92.33
2023-03-21T04:04:36.907Z,92.08
2023-03-21T04:08:48.976Z,92.30
2023-03-21T04:13:00.719Z,91.88
2023-03-21T04:17:19.246Z,91.71
2023-03-21T04:21:32.718Z,91.87
2023-03-21T04:25:55.915Z,91.65
2023-03-21T04:30:12.219Z,91.58
2023-03-21T04:34:40.259Z,91.25
2023-03-21T04:38:52.647Z,90.87
2023-03-21T04:43:04.415Z,91.03
2023-03-21T04:47:17.018Z,91.17
2023-03-21T04:51:28.773Z,90.89
2023-03-21T04:55:40.544Z,90.74
2023-03-21T04:59:52.150Z,90.54
2023-03-21T05:04:04.952Z,90.53
2023-03-21T05:08:18.920Z,90.36
2023-03-21T05:12:30.574Z,90.26
2023-03-21T05:16:45.166Z,89.98
2023-03-21T05:20:57.424Z,89.74
2023-03-21T05:25:10.321Z,89.63
2023-03-21T05:29:42.211Z,89.90
2023-03-21T05:33:55.481Z,89.75
2023-03-21T05:38:07.270Z,89.71
2023-03-21T05:42:31.531Z,89.78
2023-03-21T05:46:43.617Z,89.67
2023-03-21T05:50:56.570Z,89.72
2023-03-21T05:55:09.117Z,89.43
2023-03-21T05:59:22.241Z,89.54
2023-03-21T06:03:37.311Z,89.77
2023-03-21T06:07:52.771Z,89.57
2023-03-21T06:12:04.695Z,89.42
2023-03-21T06:16:35.153Z,89.42
2023-03-21T06:20:47.336Z,89.11
2023-03-21T06:24:59.401Z,89.08
2023-03-21T06:29:12.630Z,89.03
2023-03-21T06:33:28.088Z,88.71
2023-03-21T06:37:39.841Z,88.83
2023-03-21T06:41:51.804Z,88.71
2023-03-21T06:46:04.323Z,88.35
2023-03-21T06:50:16.524Z,88.62
2023-03-21T06:54:29.575Z,88.22
2023-03-21T06:58:45.348Z,87.98
2023-03-21T07:03:07.727Z,88.07
2023-03-21T07:07:19.728Z,87.92
2023-03-21T07:11:32.517Z,87.94
2023-03-21T07:15:44.583Z,87.60
2023-03-21T07:19:57.361Z,87.70
2023-03-21T07:24:09.047Z,87.50
2023-03-21T07:28:20.882Z,87.40
2023-03-21T07:32:34.530Z,87.03
2023-03-21T07:36:47.227Z,87.12
2023-03-21T07:40:59.823Z,86.75
2023-03-21T07:45:21.975Z,86.38
2023-03-21T07:49:33.746Z,86.39
2023-03-21T07:53:48.576Z,86.53
2023-03-21T07:58:01.394Z,86.34
2023-03-21T08:02:17.457Z,86.57
2023-03-21T08:06:29.311Z,86.66
2023-03-21T08:10:43.300Z,87.40
2023-03-21T08:14:55.000Z,87.33
2023-03-21T08:19:06.708Z,87.34
2023-03-21T08:23:18.688Z,87.60
2023-03-21T08:27:30.842Z,87.47
2023-03-21T08:31:42.494Z,87.23
2023-03-21T08:35:54.865Z,87.08
2023-03-21T08:40:11.296Z,86.89
2023-03-21T08:44:25.288Z,87.07
2023-03-21T08:48:38.814Z,87.08
2023-03-21T08:52:51.130Z,87.23
2023-03-21T08:57:02.756Z,86.68
2023-03-21T09:01:15.565Z,86.90
2023-03-21T09:05:28.444Z,86.93
2023-03-21T09:09:41.400Z,86.62
2023-03-21T09:13:53.094Z,86.34
2023-03-21T09:18:15.002Z,86.26
2023-03-21T09:22:27.759Z,85.70
2023-03-21T09:26:39.714Z,85.62
2023-03-21T09:30:51.721Z,85.59
2023-03-21T09:35:05.580Z,85.28
2023-03-21T09:39:17.324Z,84.95
2023-03-21T09:43:49.522Z,84.34
2023-03-21T09:48:02.779Z,83.92
2023-03-21T09:52:58.245Z,84.13
2023-03-21T09:57:38.137Z,83.99
2023-03-21T10:01:50.396Z,83.55
2023-03-21T10:06:10.042Z,83.25
2023-03-21T10:10:27.796Z,82.68
2023-03-21T10:14:43.340Z,82.68
2023-03-21T10:18:55.726Z,82.16
2023-03-21T10:23:13.122Z,82.30
2023-03-21T10:27:24.759Z,81.12
2023-03-21T10:31:36.647Z,79.83
2023-03-21T10:35:55.615Z,79.38
2023-03-21T10:40:12.135Z,78.09
2023-03-21T10:44:31.179Z,77.57
2023-03-21T10:48:47.504Z,77.17
2023-03-21T10:53:00.768Z,76.80
2023-03-21T10:57:21.677Z,76.62
2023-03-21T11:01:43.312Z,76.85
2023-03-21T11:06:28.244Z,76.43
2023-03-21T11:11:24.560Z,75.51
2023-03-21T11:16:08.581Z,74.16
2023-03-21T11:20:21.100Z,72.99
2023-03-21T11:24:35.536Z,72.44
2023-03-21T11:28:47.471Z,72.85
2023-03-21T11:33:06.285Z,72.66
2023-03-21T11:37:26.387Z,72.84
2023-03-21T11:41:40.876Z,72.82
2023-03-21T11:46:08.752Z,73.16
2023-03-21T11:50:27.335Z,73.13
2023-03-21T11:55:05.760Z,72.21
2023-03-21T11:59:46.439Z,72.25
2023-03-21T12:04:20.987Z,70.66
2023-03-21T12:08:49.290Z,70.13
2023-03-21T12:13:09.857Z,69.85
2023-03-21T12:17:36.298Z,69.77
2023-03-21T12:21:47.868Z,70.18
2023-03-21T12:26:29.884Z,69.95
2023-03-21T12:30:56.724Z,69.88
2023-03-21T12:35:24.416Z,69.28
2023-03-21T12:39:40.005Z,69.79
2023-03-21T12:44:05.761Z,69.68
2023-03-21T12:48:33.766Z,69.65
2023-03-21T12:52:49.935Z,69.91
2023-03-21T12:57:04.935Z,70.05
2023-03-21T13:01:21.544Z,69.57
2023-03-21T13:06:04.079Z,69.32
2023-03-21T13:10:21.042Z,68.37
2023-03-21T13:14:39.660Z,67.95
2023-03-21T13:19:07.629Z,67.34
2023-03-21T13:23:24.936Z,66.96
2023-03-21T13:27:39.465Z,65.91
2023-03-21T13:31:55.898Z,65.65
2023-03-21T13:36:09.359Z,64.95
2023-03-21T13:40:37.841Z,65.18
2023-03-21T13:44:55.751Z,64.65
2023-03-21T13:49:10.302Z,64.77
2023-03-21T13:53:24.279Z,63.84
2023-03-21T13:57:38.755Z,63.52
2023-03-21T14:02:00.894Z,63.06
2023-03-21T14:06:13.494Z,63.86
2023-03-21T14:10:35.881Z,64.57
2023-03-21T14:14:52.360Z,63.65
2023-03-21T14:19:05.598Z,62.83
2023-03-21T14:23:17.553Z,63.12
2023-03-21T14:27:35.374Z,62.64
2023-03-21T14:31:50.331Z,62.34
2023-03-21T14:36:08.904Z,61.56
2023-03-21T14:40:25.916Z,61.68
2023-03-21T14:44:58.099Z,61.68
2023-03-21T14:49:11.746Z,61.10
2023-03-21T14:53:27.241Z,60.35
2023-03-21T14:57:39.251Z,60.24
2023-03-21T15:01:54.125Z,60.33
2023-03-21T15:06:13.414Z,60.79
2023-03-21T15:10:27.587Z,61.09
2023-03-21T15:14:40.584Z,61.34
2023-03-21T15:18:52.740Z,61.60
2023-03-21T15:23:13.250Z,62.38
2023-03-21T15:27:25.743Z,62.24
2023-03-21T15:31:40.436Z,62.76
2023-03-21T15:35:55.598Z,62.67
2023-03-21T15:40:21.574Z,63.20
2023-03-21T15:44:35.164Z,63.44
2023-03-21T15:48:46.805Z,63.64
2023-03-21T15:53:01.178Z,63.68
2023-03-21T15:57:34.528Z,64.24
2023-03-21T16:01:50.972Z,63.99
2023-03-21T16:06:16.786Z,64.29
2023-03-21T16:10:38.914Z,64.68
2023-03-21T16:14:51.112Z,65.01
2023-03-21T16:19:03.612Z,65.22
2023-03-21T16:23:16.216Z,65.22
2023-03-21T16:27:28.453Z,65.53
2023-03-21T16:31:40.410Z,65.83
2023-03-21T16:35:52.175Z,66.23
2023-03-21T16:40:12.554Z,66.50
2023-03-21T16:44:24.347Z,66.90
2023-03-21T16:48:36.042Z,67.22
2023-03-21T16:52:48.378Z,67.87
2023-03-21T16:57:00.180Z,69.84
2023-03-21T17:01:19.146Z,72.08
2023-03-21T17:05:30.945Z,73.48
2023-03-21T17:09:47.938Z,73.58
2023-03-21T17:13:59.576Z,74.50
2023-03-21T17:18:12.185Z,75.46
2023-03-21T17:22:23.788Z,76.15
2023-03-21T17:26:36.359Z,76.72
2023-03-21T17:30:48.068Z,76.86
2023-03-21T17:34:59.677Z,77.66
2023-03-21T17:39:18.327Z,77.34
2023-03-21T17:43:30.102Z,77.60
2023-03-21T17:47:42.212Z,78.13
2023-03-21T17:51:53.879Z,78.12
2023-03-21T17:56:06.844Z,77.94
2023-03-21T18:00:22.916Z,77.82
2023-03-21T18:04:34.697Z,78.06
2023-03-21T18:08:48.161Z,78.18
2023-03-21T18:13:00.297Z,78.19
2023-03-21T18:17:12.021Z,78.35
2023-03-21T18:21:26.185Z,78.51
2023-03-21T18:25:41.791Z,79.39
2023-03-21T18:30:25.846Z,78.72
2023-03-21T18:34:25.290Z,79.22
2023-03-21T18:38:37.166Z,79.53
2023-03-21T18:43:41.418Z,80.02
2023-03-21T18:47:20.713Z,79.38
2023-03-21T18:51:32.669Z,79.58
2023-03-21T18:55:46.530Z,79.71
2023-03-21T19:00:00.111Z,79.75
2023-03-21T19:04:22.989Z,80.10
2023-03-21T19:08:41.766Z,80.40
2023-03-21T19:12:54.808Z,80.38
2023-03-21T19:17:56.441Z,80.50
2023-03-21T19:21:39.793Z,80.15
2023-03-21T19:25:51.455Z,80.56
2023-03-21T19:30:14.486Z,80.43
2023-03-21T19:34:28.718Z,80.87
2023-03-21T19:38:40.739Z,80.92
2023-03-21T19:42:52.989Z,81.13
2023-03-21T19:47:04.693Z,81.12
2023-03-21T19:51:32.470Z,81.35
2023-03-21T19:55:44.821Z,81.17
2023-03-21T19:59:56.720Z,80.82
2023-03-21T20:04:09.046Z,80.78
2023-03-21T20:08:20.709Z,80.84
2023-03-21T20:12:33.215Z,80.67
2023-03-21T20:16:44.910Z,81.10
2023-03-21T20:20:57.277Z,81.01
2023-03-21T20:25:09.811Z,80.77
2023-03-21T20:33:53.178Z,81.81
2023-03-21T20:38:04.837Z,81.81
2023-03-21T20:42:16.476Z,82.31
2023-03-21T20:46:28.486Z,82.75
2023-03-21T20:50:40.332Z,83.10
2023-03-21T20:54:52.010Z,83.32
2023-03-21T20:59:16.799Z,83.32
2023-03-21T21:03:39.159Z,83.75
2023-03-21T21:07:50.809Z,83.49
2023-03-21T21:12:06.934Z,83.80
2023-03-21T21:16:19.373Z,83.58
2023-03-21T21:20:33.602Z,83.80
2023-03-21T21:24:45.490Z,84.21
2023-03-21T21:28:58.801Z,84.24
2023-03-21T21:33:10.569Z,84.65
2023-03-21T21:37:22.858Z,85.44
2023-03-21T21:41:34.583Z,85.80
2023-03-21T21:45:47.483Z,86.14
2023-03-21T21:49:59.160Z,86.33
2023-03-21T21:54:11.054Z,87.11
2023-03-21T21:58:22.796Z,86.91
2023-03-21T22:02:34.552Z,87.02
2023-03-21T22:06:47.861Z,87.48
2023-03-21T22:11:03.505Z,87.83
2023-03-21T22:15:15.153Z,87.88
2023-03-21T22:19:27.711Z,88.29
2023-03-21T22:23:41.477Z,88.50
2023-03-21T22:27:53.323Z,88.48
2023-03-21T22:32:05.438Z,88.49
2023-03-21T22:36:17.091Z,88.10
2023-03-21T22:40:28.837Z,88.64
2023-03-21T22:44:40.637Z,88.46
2023-03-21T22:48:52.323Z,88.10
2023-03-21T22:53:03.956Z,87.46
2023-03-21T22:57:16.741Z,87.33
2023-03-21T23:01:28.366Z,87.41
2023-03-21T23:05:44.529Z,87.47
2023-03-21T23:09:56.618Z,87.21
2023-03-21T23:14:08.902Z,87.34
2023-03-21T23:18:20.576Z,86.89
2023-03-21T23:22:32.885Z,86.49
2023-03-21T23:26:44.542Z,86.63
2023-03-21T23:30:56.301Z,86.52
2023-03-21T23:35:08.888Z,86.29
2023-03-21T23:39:20.499Z,86.70
2023-03-21T23:43:32.097Z,86.78
2023-03-21T23:47:44.093Z,86.69
2023-03-21T23:51:55.918Z,87.05
2023-03-21T23:56:18.978Z,86.42
